• Join FlightAware (Why Join?)
  • Login
  • US Flag GB Flag 
02:34 EDT


 

Airport Tracker/Info


-or-


 

Live Flight TrackerFlight Track Log ✈ ABX2195 ✈ 21-Feb-2013 ✈ KMCI - KCVG

Flight Track Log - Related Links

Times and Time Zones

All times are in EST time to prevent confusion due to time zone crossing. See the ABX2195 flight status page for this flight to view local times or setup timezone preferences in your user account.

Time Position Orientation Groundspeed Altitude Reporting Facility
EST Latitude Longitude Course Direction KTS MPH feet Rate Location/Type
09:11 39.2833 -94.7000 90° East 123 142 2,000  Level Kansas City TRACON
09:11 39.2833 -94.6667 90° East 145 167 4,100 2,580 Climbing Kansas City TRACON
09:12 39.2550 -94.6058 121° Southeast 191 220 6,500 2,940 Climbing Kansas City Center
09:13 39.2300 -94.5278 112° Southeast 240 276 9,800 2,880 Climbing Kansas City Center
09:14 39.1983 -94.4392 115° Southeast 286 329 12,500 2,820 Climbing Kansas City Center
09:15 39.1589 -94.3231 114° Southeast 320 368 15,600 3,060 Climbing Kansas City Center
09:16 39.1247 -94.2175 113° Southeast 333 383 18,800 2,580 Climbing Kansas City Center
09:18 39.0833 -94.0658 90° East  Level FlightAware Approximate
09:18 39.0819 -93.9283 90° East 420 483 23,600  Level Kansas City Center
09:19 39.0719 -93.7775 95° East 438 504 26,300 2,640 Climbing Kansas City Center
09:20 39.0594 -93.5928 95° East 465 535 29,100 2,580 Climbing Kansas City Center
09:21 39.0500 -93.4292 94° East 476 548 31,600 2,160 Climbing Kansas City Center
09:22 39.0392 -93.2728 95° East 483 556 33,600 2,460 Climbing Kansas City Center
09:23 39.0244 -93.0625 95° East 493 567 36,700 1,620 Climbing Kansas City Center
09:25 39.0111 -92.8889 96° East 493 567 37,000 120 Climbing Kansas City Center
09:26 38.9714 -92.7308 108° East 488 562 37,000  Level Kansas City Center
09:27 38.9192 -92.5683 112° Southeast 487 560 37,000  Level Kansas City Center
09:28 38.8703 -92.4067 111° Southeast 486 559 37,000  Level Kansas City Center
09:29 38.8364 -92.2336 104° East 493 567 37,000  Level Kansas City Center
09:30 38.8131 -92.0489 99° East 513 590 37,000  Level Kansas City Center
09:31 38.7900 -91.8669 99° East 513 590 37,000  Level Kansas City Center
09:32 38.7633 -91.6583 99° East 518 596 37,000  Level Kansas City Center
09:33 38.7394 -91.4747 99° East 522 601 37,000  Level Kansas City Center
09:34 38.7153 -91.2889 99° East 527 606 37,000  Level Kansas City Center
09:35 38.6914 -91.1036 99° East 530 610 37,000  Level Kansas City Center
09:36 38.6681 -90.9164 99° East 533 613 37,000  Level Kansas City Center
09:37 38.6425 -90.7306 100° East 534 615 37,000  Level Kansas City Center
09:38 38.6142 -90.5183 100° East 537 618 37,000  Level Kansas City Center
09:39 38.6050 -90.3242 93° East 541 623 37,000  Level Kansas City Center
09:40 38.6114 -90.1275 88° East 558 642 37,000  Level Kansas City Center
09:41 38.6139 -89.9367 89° East 546 628 37,000  Level Kansas City Center
09:42 38.6150 -89.7403 90° East 559 643 37,000  Level Kansas City Center
09:43 38.6169 -89.5281 89° East 547 629 37,000  Level Kansas City Center
09:44 38.6178 -89.3164 90° East 552 635 37,000 -480 Level Kansas City Center
09:45 38.6186 -89.1194 90° East 555 639 36,100 -1,020 Descending Kansas City Center
09:46 38.6228 -88.9225 88° East 549 632 35,000 -1,320 Descending Kansas City Center
09:47 38.6244 -88.7292 89° East 546 628 33,500 -1,500 Descending Kansas City Center
09:48 38.6269 -88.5556 89° East 546 628 32,000 -1,260 Descending Kansas City Center
09:49 38.6258 -88.3219 90° East 544 626 31,000 -540 Descending Kansas City Center
09:50 38.6256 -88.1217 90° East 553 636 31,000  Level Kansas City Center
09:51 38.6244 -87.9225 90° East 555 639 31,000  Level Kansas City Center
09:52 38.6228 -87.7250 91° East 552 635 31,000  Level Kansas City Center
09:53 38.6206 -87.5278 91° East 550 633 31,000 -600 Level Kansas City Center
09:54 38.6175 -87.2922 91° East 550 633 29,700 -1,200 Descending Indianapolis Center
09:55 38.6150 -87.0933 91° East 548 631 28,400 -1,500 Descending Indianapolis Center
09:56 38.6122 -86.8956 91° East 547 629 26,700 -1,860 Descending Indianapolis Center
09:57 38.6103 -86.7050 91° East 530 610 24,600 -2,100 Descending Indianapolis Center
09:58 38.6072 -86.5292 91° East 497 572 22,400 -2,160 Descending Indianapolis Center
10:00 38.6042 -86.3592 91° East 478 550 20,200 -2,040 Descending Indianapolis Center
10:01 38.6014 -86.1978 91° East 455 524 18,300 -1,620 Descending Indianapolis Center
10:02 38.5981 -86.0519 92° East 413 475 16,900 -1,440 Descending Indianapolis Center
10:03 38.5958 -85.9050 91° East 411 473 15,400 -1,140 Descending Indianapolis Center
10:04 38.5903 -85.7344 92° East 400 460 14,600 -780 Descending Indianapolis Center
10:05 38.6033 -85.5989 83° East 389 448 13,900 -1,500 Descending Indianapolis Center
10:06 38.6606 -85.4828 58° Northeast 375 432 11,600 -1,500 Descending Indianapolis Center
10:07 38.7019 -85.3669 65° Northeast 365 420 10,900 -780 Descending Indianapolis Center
10:08 38.7036 -85.2486 89° East 332 382 10,000 -1,080 Descending Indianapolis Center
10:09 38.7181 -85.1472 80° East 294 338 8,700 -1,500 Descending Indianapolis Center
10:10 38.7319 -85.0486 80° East 283 326 7,000 -1,740 Descending Indianapolis Center
10:11 38.7486 -84.9358 79° East 277 319 5,200 -1,020 Descending Indianapolis Center
10:12 38.7639 -84.8425 78° East 274 315 5,000 -360 Descending Indianapolis Center
10:13 38.7722 -84.7594 83° East 259 298 4,500 -840 Descending Indianapolis Center
10:14 38.8083 -84.6817 59° Northeast 258 297 3,300 -600 Descending Indianapolis Center
10:16 38.9000 -84.6667 North 194 223 3,000 -240 Descending Cincinnati TRACON
10:17 38.9500 -84.6667 360° North 192 221 2,800 -660 Descending Cincinnati TRACON
10:18 39.0000 -84.6667 360° North 162 186 1,700 -900 Descending Cincinnati TRACON
10:19 39.0333 -84.6667 360° North 100 115 1,000 -720 Descending Cincinnati TRACON
10:21 39.0488 -84.6678 38° Northeast  Level Estimated